Weather observations for the past three days for
Sheldon
Imperial (Metric)
Date Time (cdt) Wind (mph) Vis. (mi.) Weather Sky Cond. Temperature (ºF) Relative Humidity Wind Chill (°F) Heat Index (°F) Pressure Precipitation (in)
Air Dwpt 6 hour altimeter (in) sea level (mb) 1 hr 3 hr 6 hr
Max. Min.
04 04:15 SW 12 10.00 Overcast OVC095 53.6 37.4 54% 29.56 0.0
04 03:55 SW 9 10.00 NULL NULL 55.4 37.4 51% 29.56 0.0
04 03:35 SW 10 10.00 NULL NULL 53.6 37.4 54% 29.57 0.0
04 03:15 SW 8 10.00 NULL NULL 51.8 37.4 58% 29.58 0.0
04 02:55 SW 8 10.00 NULL NULL 51.8 37.4 58% 29.59 0.0
04 02:35 SW 7 10.00 Fair CLR 50 37.4 62% 48 29.59 0.0
04 02:15 SW 7 10.00 Fair CLR 48.2 35.6 62% 46 29.6 0.0
04 01:55 SW 8 10.00 Fair CLR 50 35.6 58% 47 29.62 0.0
04 01:35 S 9 10.00 NULL NULL 50 35.6 58% 47 29.62 0.0
04 01:15 S 8 10.00 Fair CLR 50 35.6 58% 47 29.63 0.0
04 00:55 SW 7 10.00 Fair CLR 51.8 35.6 54% 29.64 0.0
04 00:35 SW 7 10.00 Fair CLR 51.8 35.6 54% 29.65 0.0
04 00:15 SW 8 10.00 Fair CLR 53.6 35.6 51% 29.66 0.0
03 23:55 SW 9 10.00 Fair CLR 53.6 33.8 47% 29.66 0.0
03 23:35 SW 7 10.00 NULL NULL 53.6 33.8 47% 29.67 0.0
03 23:15 SW 7 10.00 Fair CLR 51.8 33.8 50% 29.67 0.0
03 22:55 SW 6 10.00 Fair CLR 55.4 32 41% 29.68 0.0
03 22:35 SW 7 10.00 Fair CLR 55.4 32 41% 29.7 0.0
03 22:15 SW 6 10.00 Fair CLR 53.6 33.8 47% 29.7 0.0
03 21:55 SW 5 10.00 Fair CLR 59 33.8 39% 29.71 0.0
03 21:35 SW 6 10.00 Fair CLR 59 32 36% 29.7 0.0
03 21:15 SW 5 10.00 Fair CLR 60.8 32 34% 29.7 0.0
03 20:55 SW 5 10.00 Fair CLR 60.8 32 34% 29.71 0.0
03 20:35 W 7 10.00 Fair CLR 62.6 32 32% 29.71 0.0
03 20:15 W 9 10.00 Fair CLR 66.2 32 28% 29.71 0.0
03 19:55 W 10 10.00 Fair CLR 68 32 26% 29.71 0.0
03 19:35 W 13 G 18 10.00 Fair CLR 69.8 32 25% 29.72 0.0
03 19:15 W 12 10.00 Fair CLR 69.8 30.2 23% 29.72 0.0
03 18:55 W 12 G 17 10.00 Fair CLR 71.6 32 23% 29.72 0.0
03 18:35 W 10 G 17 10.00 Fair CLR 71.6 28.4 20% 29.73 0.0
03 18:15 W 14 G 23 10.00 Fair CLR 71.6 30.2 22% 29.73 0.0
03 17:55 NW 14 G 21 10.00 Fair CLR 71.6 30.2 22% 29.73 0.0
03 17:35 NW 10 G 20 10.00 Fair CLR 71.6 30.2 22% 29.74 0.0
03 17:15 NW 15 10.00 Fair CLR 71.6 30.2 22% 29.74 0.0
03 16:55 NW 16 10.00 Fair CLR 73.4 32 22% 29.74 0.0
03 16:35 NW 15 G 24 10.00 Fair CLR 71.6 32 23% 29.75 0.0
03 16:15 NW 16 G 23 10.00 Fair CLR 71.6 32 23% 29.75 0.0
03 15:55 W 13 G 20 10.00 Fair CLR 73.4 30.2 20% 29.77 0.0
03 15:35 N 14 G 24 10.00 Fair CLR 71.6 30.2 22% 29.77 0.0
03 15:15 NW 12 G 24 10.00 Fair CLR 71.6 30.2 22% 29.78 0.0
03 14:55 NW 18 10.00 Fair CLR 71.6 30.2 22% 29.79 0.0
03 14:35 NW 18 G 24 10.00 Fair CLR 71.6 30.2 22% 29.79 0.0
03 14:15 NW 14 G 20 10.00 Fair CLR 71.6 33.8 25% 29.8 0.0
03 13:35 NW 21 10.00 Fair and Breezy CLR 69.8 32 25% 29.81 0.0
03 13:15 N 10 G 26 10.00 Fair CLR 68 32 26% 29.82 0.0
03 12:55 N 17 G 25 10.00 Fair CLR 69.8 32 25% 29.82 0.0
03 12:35 NW 20 G 28 10.00 Fair CLR 69.8 33.8 27% 29.82 0.0
03 12:15 N 18 G 26 10.00 Fair CLR 68 33.8 28% 29.82 0.0
03 11:55 N 22 0.00 Fair and Breezy CLR 68 33.8 28% 29.82 0.0
03 11:35 N 24 G 33 10.00 Fair and Breezy CLR 68 35.6 30% 29.82 0.0
03 11:15 N 24 10.00 Fair and Breezy CLR 66.2 35.6 32% 29.83 0.0
03 10:55 N 21 G 28 10.00 Fair and Breezy CLR 64.4 35.6 34% 29.83 0.0
03 10:35 NW 21 G 28 10.00 Fair and Breezy CLR 64.4 35.6 34% 29.83 0.0
03 10:15 N 21 G 28 10.00 Fair and Breezy CLR 62.6 37.4 39% 29.83 0.0
03 09:55 N 20 G 26 10.00 Fair CLR 62.6 37.4 39% 29.83 0.0
03 09:35 N 21 10.00 Fair and Breezy CLR 60.8 37.4 42% 29.82 0.0
03 09:15 N 18 G 29 10.00 Fair CLR 60.8 37.4 42% 29.82 0.0
03 08:55 NW 20 10.00 Fair CLR 59 37.4 45% 29.82 0.0
03 08:35 N 18 10.00 Fair CLR 57.2 37.4 48% 29.81 0.0
03 08:15 NW 16 10.00 Fair CLR 55.4 37.4 51% 29.81 0.0
03 07:35 NW 9 10.00 Fair CLR 50 37.4 62% 47 29.8 0.0
03 07:15 NW 9 10.00 Fair CLR 48.2 37.4 66% 45 29.79 0.0
03 06:55 NW 7 10.00 Fair CLR 48.2 37.4 66% 46 29.78 0.0
03 06:35 NW 7 10.00 Fair CLR 46.4 35.6 66% 43 29.77 0.0
03 06:15 NW 9 10.00 Fair CLR 48.2 35.6 62% 45 29.76 0.0
03 05:55 NW 13 10.00 Fair CLR 50 35.6 58% 46 29.76 0.0
03 05:35 NW 9 10.00 NULL NULL 50 33.8 54% 47 29.75 0.0
03 05:15 W 10 10.00 Fair CLR 48.2 33.8 58% 44 29.75 0.0
03 04:55 SW 7 10.00 Fair CLR 48.2 32 54% 46 29.75 0.0
03 04:35 SW 7 10.00 Fair CLR 48.2 32 54% 46 29.74 0.0
03 04:15 SW 8 10.00 Fair CLR 50 32 50% 47 29.74 0.0
03 03:55 SW 10 10.00 Fair CLR 50 32 50% 46 29.74 0.0
03 03:35 SW 9 10.00 Fair CLR 51.8 30.2 44% 29.74 0.0
03 03:15 SW 9 G 16 10.00 A Few Clouds FEW110 53.6 30.2 41% 29.74 0.0
03 02:55 SW 13 G 21 0.00 Mostly Cloudy FEW070 BKN110 55.4 30.2 38% 29.75 0.0
03 02:35 SW 17 10.00 Mostly Cloudy FEW047 BKN070 BKN110 55.4 30.2 38% 29.74 0.0
03 02:15 S 13 G 20 10.00 NULL NULL 55.4 32 41% 29.75 0.0
03 01:55 S 17 10.00 Mostly Cloudy FEW025 SCT042 BKN065 55.4 32 41% 29.76 0.0
03 01:35 S 14 10.00 Mostly Cloudy FEW065 SCT090 BKN110 55.4 30.2 38% 29.77 0.0
03 01:15 S 14 10.00 Mostly Cloudy FEW047 BKN090 BKN110 57.2 30.2 36% 29.77 0.0
03 00:55 S 12 10.00 Mostly Cloudy SCT090 BKN110 59 28.4 31% 29.79 0.0
03 00:35 SW 16 G 23 10.00 Overcast FEW035 SCT075 OVC110 60.8 30.2 31% 29.8 0.0
03 00:15 SW 17 G 25 10.00 Mostly Cloudy FEW032 SCT060 BKN075 59 30.2 34% 29.8 0.0
02 23:55 SW 15 G 22 10.00 Mostly Cloudy BKN110 59 28.4 31% 29.8 0.0
02 23:35 S 16 G 25 10.00 Partly Cloudy SCT120 59 28.4 31% 29.78 0.0
02 23:15 S 17 10.00 Mostly Cloudy BKN110 60.8 26.6 27% 29.79 0.0
02 22:55 S 17 10.00 Partly Cloudy FEW075 SCT100 59 28.4 31% 29.79 0.0
02 22:35 S 14 G 20 10.00 Mostly Cloudy FEW060 SCT075 BKN095 57.2 28.4 33% 29.8 0.0
02 22:15 S 14 9.00 Overcast BKN100 OVC120 57.2 28.4 33% 29.81 0.0
02 21:55 S 14 10.00 Overcast BKN100 OVC120 57.2 28.4 33% 29.82 0.0
02 21:35 S 10 10.00 NULL NULL 57.2 28.4 33% 29.83 0.0
02 21:15 S 10 10.00 Fair CLR 57.2 28.4 33% 29.83 0.0
02 20:55 S 9 10.00 Fair CLR 59 28.4 31% 29.84 0.0
02 20:35 S 9 10.00 Fair CLR 59 28.4 31% 29.85 0.0
02 20:15 S 9 10.00 Fair CLR 62.6 28.4 27% 29.85 0.0
02 19:55 SW 14 10.00 Fair CLR 64.4 26.6 24% 29.85 0.0
02 19:35 S 12 10.00 Fair CLR 64.4 28.4 26% 29.86 0.0
02 19:15 SW 15 10.00 Fair CLR 66.2 26.6 22% 29.87 0.0
02 18:35 SW 12 10.00 A Few Clouds FEW120 66.2 26.6 22% 29.88 0.0
02 18:15 SW 15 10.00 A Few Clouds FEW110 66.2 26.6 22% 29.89 0.0
02 17:55 SW 9 G 18 10.00 Fair CLR 66.2 26.6 22% 29.92 0.0
02 17:35 W 15 10.00 A Few Clouds FEW120 66.2 24.8 21% 29.92 0.0
02 17:15 SW 18 10.00 A Few Clouds FEW120 68 26.6 21% 29.92 0.0
02 16:55 SW 12 10.00 Fair CLR 66.2 28.4 24% 29.92 0.0
02 16:35 SW 14 10.00 Fair CLR 66.2 28.4 24% 29.93 0.0
02 16:15 SW 15 G 22 10.00 Fair CLR 68 28.4 23% 29.95 0.0
02 15:35 SW 14 10.00 Fair CLR 66.2 28.4 24% 29.97 0.0
02 15:15 W 13 G 18 10.00 Fair CLR 66.2 28.4 24% 29.98 0.0
02 14:55 SW 9 G 16 10.00 Fair CLR 64.4 28.4 26% 29.99 0.0
02 14:35 W 14 G 21 10.00 Fair CLR 64.4 28.4 26% 29.99 0.0
02 14:15 W 12 10.00 Fair CLR 64.4 28.4 26% 30.01 0.0
02 13:35 W 6 G 16 10.00 Fair CLR 62.6 28.4 27% 30.02 0.0
02 13:15 W 13 10.00 Fair CLR 62.6 28.4 27% 30.04 0.0
02 12:55 W 9 G 16 10.00 Fair CLR 60.8 28.4 29% 30.04 0.0
02 12:35 W 10 G 18 10.00 Fair CLR 59 28.4 31% 30.05 0.0
02 12:15 W 14 G 21 10.00 Fair CLR 59 28.4 31% 30.06 0.0
02 11:55 W 12 G 18 10.00 Fair CLR 59 28.4 31% 30.07 0.0
02 11:35 W 12 G 20 10.00 Fair CLR 57.2 26.6 31% 30.07 0.0
02 11:15 SW 13 10.00 Fair CLR 57.2 26.6 31% 30.08 0.0
02 10:55 W 10 10.00 Fair CLR 55.4 26.6 33% 30.09 0.0
02 10:35 SW 10 10.00 Fair CLR 55.4 26.6 33% 30.09 0.0
02 10:15 W 13 10.00 Fair CLR 53.6 26.6 35% 30.09 0.0
02 09:55 SW 12 10.00 Fair CLR 51.8 28.4 41% 30.1 0.0
02 09:35 SW 12 10.00 Fair CLR 51.8 26.6 38% 30.1 0.0
02 08:55 SW 12 10.00 Fair CLR 48.2 30.2 50% 44 30.11 0.0
02 08:35 SW 7 10.00 Fair CLR 44.6 30.2 57% 41 30.11 0.0
02 07:55 Calm 10.00 Fair CLR 39.2 30.2 70% 30.12 0.0
02 07:35 Calm 10.00 Fair CLR 35.6 35.6 100% 30.12 0.0
02 07:15 Calm 10.00 Fair CLR 32 32 100% 30.12 0.0
02 06:55 Calm 10.00 Fair CLR 30.2 30.2 100% 30.12 0.0
02 06:35 Calm 10.00 Fair CLR 28.4 28.4 100% 30.12 0.0
02 06:15 Calm 10.00 Fair CLR 28.4 28.4 100% 30.12 0.0
02 05:55 Calm 10.00 Fair CLR 28.4 28.4 100% 30.12 0.0
02 05:35 Calm 10.00 Fair CLR 28.4 28.4 100% 30.12 0.0
02 05:15 Calm 10.00 Partly Cloudy FEW033 SCT041 28.4 28.4 100% 30.12 0.0
02 04:55 Calm 10.00 Mostly Cloudy BKN033 BKN044 28.4 28.4 100% 30.12 0.0
02 04:35 Calm 10.00 Mostly Cloudy BKN032 BKN044 28.4 28.4 100% 30.11 0.0
02 04:15 Calm 10.00 Overcast OVC032 30.2 30.2 100% 30.11 0.0
02 03:55 Calm 10.00 NULL NULL 30.2 30.2 100% 30.11 0.0
02 03:15 Calm 10.00 Overcast BKN034 OVC042 30.2 30.2 100% 30.11 0.0
02 02:55 Calm 10.00 Overcast BKN034 OVC042 30.2 30.2 100% 30.11 0.0
02 02:35 Calm 10.00 Overcast BKN032 BKN039 OVC047 32 32 100% 30.11 0.0
02 02:15 Calm 10.00 Mostly Cloudy FEW040 BKN047 BKN055 33.8 33.8 100% 30.11 0.0
02 01:55 Calm 10.00 Mostly Cloudy BKN050 BKN055 32 32 100% 30.12 0.0
02 01:35 Calm 10.00 NULL NULL 32 32 100% 30.12 0.0
02 01:15 Calm 10.00 Mostly Cloudy BKN050 BKN055 33.8 30.2 87% 30.12 0.0
02 00:55 Calm 10.00 Mostly Cloudy SCT055 BKN060 33.8 30.2 87% 30.12 0.0
02 00:35 Calm 10.00 Mostly Cloudy SCT050 BKN060 35.6 28.4 75% 30.12 0.0
02 00:15 Calm 10.00 Partly Cloudy FEW050 SCT060 35.6 28.4 75% 30.12 0.0
01 23:55 Calm 10.00 Fair CLR 35.6 28.4 75% 30.12 0.0
01 23:35 Calm 10.00 A Few Clouds FEW036 FEW043 FEW049 35.6 28.4 75% 30.11 0.0
01 23:15 Calm 10.00 Partly Cloudy SCT039 SCT045 35.6 28.4 75% 30.11 0.0
01 22:55 Calm 10.00 NULL NULL 35.6 26.6 70% 30.11 0.0
01 22:35 Calm 10.00 NULL NULL 37.4 26.6 65% 30.11 0.0
01 22:15 Calm 10.00 A Few Clouds FEW049 FEW055 37.4 26.6 65% 30.11 0.0
01 21:55 NE 5 10.00 A Few Clouds FEW055 41 26.6 57% 38 30.11 0.0
01 21:35 NE 6 10.00 Fair CLR 41 26.6 57% 38 30.1 0.0
01 21:15 NE 7 10.00 NULL NULL 41 26.6 57% 37 30.1 0.0
01 20:55 NE 5 10.00 Fair CLR 42.8 24.8 49% 41 30.09 0.0
01 20:35 NE 6 10.00 Fair CLR 44.6 24.8 46% 42 30.08 0.0
01 20:15 NE 8 10.00 Fair CLR 48.2 24.8 40% 45 30.08 0.0
01 19:55 N 9 10.00 Fair CLR 50 24.8 37% 47 30.07 0.0
01 19:35 N 12 10.00 A Few Clouds FEW075 50 23 35% 46 30.07 0.0
01 19:15 N 13 10.00 Fair CLR 50 23 35% 46 30.07 0.0
01 18:55 N 13 10.00 A Few Clouds FEW070 50 21.2 32% 46 30.07 0.0
01 18:35 N 15 10.00 Mostly Cloudy BKN070 53.6 23 30% 30.06 0.0
01 18:15 N 10 10.00 A Few Clouds FEW070 51.8 23 32% 30.06 0.0
01 17:55 N 12 G 20 10.00 Partly Cloudy SCT070 53.6 23 30% 30.06 0.0
01 17:35 N 15 10.00 Partly Cloudy SCT070 SCT080 53.6 21.2 28% 30.06 0.0
01 17:15 N 10 G 18 10.00 A Few Clouds FEW070 51.8 23 32% 30.06 0.0
01 16:55 N 15 10.00 Partly Cloudy SCT070 51.8 23 32% 30.06 0.0
01 16:35 N 8 G 18 10.00 Mostly Cloudy BKN065 53.6 21.2 28% 30.06 0.0
01 16:15 N 12 10.00 Mostly Cloudy BKN065 53.6 24.8 33% 30.06 0.0
01 15:55 N 10 10.00 Mostly Cloudy BKN065 51.8 21.2 30% 30.07 0.0
01 15:35 NE 12 10.00 Mostly Cloudy BKN060 51.8 23 32% 30.07 0.0
01 15:15 N 14 10.00 Mostly Cloudy BKN060 51.8 23 32% 30.07 0.0
01 14:55 N 13 G 18 10.00 Partly Cloudy SCT060 51.8 23 32% 30.08 0.0
01 14:35 N 10 10.00 Partly Cloudy SCT060 50 23 35% 46 30.08 0.0
01 14:15 N 13 10.00 Mostly Cloudy BKN060 50 23 35% 46 30.08 0.0
01 13:55 N 10 10.00 Mostly Cloudy BKN060 50 23 35% 46 30.08 0.0
01 13:35 N 9 G 16 10.00 Mostly Cloudy BKN060 48.2 23 37% 45 30.08 0.0
01 13:15 N 12 G 20 10.00 Mostly Cloudy BKN060 48.2 23 37% 44 30.08 0.0
01 12:55 N 13 G 21 10.00 Overcast OVC055 48.2 23 37% 43 30.09 0.0
01 12:35 N 12 10.00 Mostly Cloudy BKN060 48.2 23 37% 44 30.09 0.0
01 12:15 N 12 G 18 10.00 Mostly Cloudy BKN060 48.2 23 37% 44 30.09 0.0
01 11:55 N 8 G 17 10.00 Mostly Cloudy BKN055 46.4 21.2 37% 43 30.08 0.0
01 11:35 N 15 10.00 Mostly Cloudy SCT050 BKN060 46.4 23 40% 41 30.08 0.0
01 11:15 NW 18 10.00 Mostly Cloudy BKN050 BKN055 46.4 23 40% 40 30.08 0.0
01 10:55 NW 13 G 22 10.00 Partly Cloudy SCT047 44.6 24.8 46% 39 30.08 0.0
01 10:35 N 15 G 21 10.00 Mostly Cloudy FEW046 BKN055 46.4 28.4 50% 41 30.08 0.0
01 10:15 N 16 G 23 10.00 Mostly Cloudy BKN055 44.6 28.4 53% 38 30.08 0.0
01 09:55 N 14 10.00 Mostly Cloudy BKN055 46.4 28.4 50% 41 30.07 0.0
01 09:35 N 13 10.00 Mostly Cloudy BKN055 44.6 32 61% 39 30.07 0.0
01 09:15 N 12 10.00 Overcast OVC055 42.8 32 66% 37 30.08 0.0
01 08:55 N 10 10.00 Mostly Cloudy BKN055 41 33.8 76% 35 30.08 0.0
01 08:35 N 13 10.00 Mostly Cloudy BKN055 39.2 37.4 93% 32 30.07 0.0
01 08:15 N 10 10.00 A Few Clouds FEW060 39.2 39.2 100% 33 30.07 0.0
01 07:55 N 8 10.00 A Few Clouds FEW060 37.4 37.4 100% 32 30.06 0.0
01 07:35 NW 7 9.00 A Few Clouds FEW060 37.4 37.4 100% 33 30.06 0.0
01 07:15 NW 8 8.00 Fair CLR 35.6 35.6 100% 30 30.05 0.0
01 06:55 NW 7 7.00 Fair CLR 33.8 33.8 100% 28 30.04 0.0
01 06:35 NW 7 6.00 Fog/Mist CLR 33.8 33.8 100% 28 30.03 0.0
01 06:15 NW 9 6.00 Fog/Mist BKN065 33.8 33.8 100% 27 30.03 0.0
01 05:55 NW 7 7.00 Overcast OVC065 33.8 33.8 100% 28 30.03 0.0
01 05:35 NW 7 10.00 Overcast OVC065 33.8 33.8 100% 28 30.03 0.0
01 05:15 NW 6 10.00 Mostly Cloudy BKN065 35.6 35.6 100% 31 30.03 0.0
01 04:55 NW 6 10.00 Mostly Cloudy FEW047 BKN070 33.8 33.8 100% 29 30.03 0.0
01 04:35 NW 6 9.00 A Few Clouds FEW046 FEW070 33.8 33.8 100% 29 30.02 0.0
Date Time (cdt) Wind (mph) Vis. (mi.) Weather Sky Cond. Air Dwpt Max. Min. Relative Humidity Wind Chill (°F) Heat Index (°F) altimeter (in) sea level (mb) 1 hr 3 hr 6 hr
6 hour
Temperature (ºF) Pressure Precipitation (in)